Time;durP1;ratioP1;P1;durP2;ratioP2;P2;SDS_P1;SDS_P2;PMS_P1;PMS_P2;Temp;Humidity;BMP_temperature;BMP_pressure;BME280_temperature;BME280_humidity;BME280_pressure;Samples;Min_cycle;Max_cycle;Signal;HPM_P1;HPM_P2
2022/04/18 00:01:54;;;;;;;9.35;5.78;;;;;;;;;;5061964;28;20033;-51
2022/04/18 00:04:20;;;;;;;11.48;5.57;;;;;;;;;;5055241;28;20029;-54
2022/04/18 00:06:46;;;;;;;9.77;5.97;;;;;;;;;;5058109;28;20074;-53
2022/04/18 00:09:12;;;;;;;9.95;5.28;;;;;;;;;;5065327;28;20147;-52
2022/04/18 00:11:38;;;;;;;9.00;5.15;;;;;;;;;;5065291;28;20101;-54
2022/04/18 00:14:04;;;;;;;10.35;5.40;;;;;;;;;;5064028;28;20401;-51
2022/04/18 00:16:30;;;;;;;9.75;5.10;;;;;;;;;;5066509;28;20108;-54
2022/04/18 00:18:56;;;;;;;8.00;4.78;;;;;;;;;;5070459;28;20032;-52
2022/04/18 00:21:23;;;;;;;10.48;4.95;;;;;;;;;;5072508;28;20091;-51
2022/04/18 00:23:49;;;;;;;8.68;5.15;;;;;;;;;;5066901;28;20439;-50
2022/04/18 00:26:15;;;;;;;12.23;5.90;;;;;;;;;;5067179;28;20033;-51
2022/04/18 00:28:41;;;;;;;12.63;5.50;;;;;;;;;;5068717;28;20021;-51
2022/04/18 00:31:07;;;;;;;10.60;5.88;;;;;;;;;;5066925;28;20040;-52
2022/04/18 00:33:33;;;;;;;11.55;5.82;;;;;;;;;;5066745;28;20480;-52
2022/04/18 00:36:02;;;;;;;11.90;5.68;;;;;;;;;;5056835;28;20051;-54
2022/04/18 00:38:31;;;;;;;13.52;6.13;;;;;;;;;;5062333;28;20037;-51
2022/04/18 00:40:57;;;;;;;10.88;6.25;;;;;;;;;;5073923;28;20044;-52
2022/04/18 00:43:40;;;;;;;8.50;5.15;;;;;;;;;;5062335;28;20021;-50
2022/04/18 00:46:06;;;;;;;13.47;5.40;;;;;;;;;;5071137;28;20483;-53
2022/04/18 00:48:32;;;;;;;10.25;5.60;;;;;;;;;;5056336;28;20032;-51
2022/04/18 00:50:58;;;;;;;8.90;5.88;;;;;;;;;;5066876;28;20040;-53
2022/04/18 00:53:24;;;;;;;9.63;5.88;;;;;;;;;;5066679;28;20108;-53
2022/04/18 00:55:50;;;;;;;9.32;5.53;;;;;;;;;;5066780;28;20025;-50
2022/04/18 00:58:16;;;;;;;10.15;5.38;;;;;;;;;;5070412;28;20104;-53
2022/04/18 01:00:42;;;;;;;9.20;5.63;;;;;;;;;;5067596;28;20040;-50
2022/04/18 01:03:08;;;;;;;13.65;5.97;;;;;;;;;;5060513;28;20104;-53
2022/04/18 01:05:34;;;;;;;9.48;5.15;;;;;;;;;;5068350;28;20028;-50
2022/04/18 01:08:00;;;;;;;7.93;5.28;;;;;;;;;;5071595;28;20061;-48
2022/04/18 01:10:26;;;;;;;12.10;6.35;;;;;;;;;;5063228;28;20138;-52
2022/04/18 01:12:52;;;;;;;10.55;5.28;;;;;;;;;;5053934;28;20033;-53
2022/04/18 01:15:18;;;;;;;10.73;5.38;;;;;;;;;;5059821;28;20468;-51
2022/04/18 01:17:44;;;;;;;9.77;5.07;;;;;;;;;;5072123;28;20067;-52
2022/04/18 01:20:10;;;;;;;10.88;5.70;;;;;;;;;;5069182;28;20106;-49
2022/04/18 01:22:36;;;;;;;11.23;5.88;;;;;;;;;;5064753;28;20513;-49
2022/04/18 01:30:32;;;;;;;10.27;6.03;;;;;;;;;;5051801;28;20563;-50
2022/04/18 01:32:58;;;;;;;12.52;6.45;;;;;;;;;;5064859;28;20107;-51
2022/04/18 01:35:24;;;;;;;9.98;6.25;;;;;;;;;;5065168;28;20490;-49
2022/04/18 01:37:50;;;;;;;9.45;5.38;;;;;;;;;;5071310;28;20032;-51
2022/04/18 01:40:16;;;;;;;10.63;5.80;;;;;;;;;;5043627;28;20044;-52
2022/04/18 01:42:42;;;;;;;12.85;6.30;;;;;;;;;;5055890;28;20025;-50
2022/04/18 01:45:08;;;;;;;10.82;6.50;;;;;;;;;;5075071;28;20499;-51
2022/04/18 01:47:34;;;;;;;14.35;6.55;;;;;;;;;;5059384;28;20036;-49
2022/04/18 01:50:00;;;;;;;9.85;5.72;;;;;;;;;;5062163;28;20067;-51
2022/04/18 01:52:26;;;;;;;10.98;6.50;;;;;;;;;;5067749;28;20040;-50
2022/04/18 01:54:52;;;;;;;11.50;6.10;;;;;;;;;;5053586;28;20045;-52
2022/04/18 01:57:18;;;;;;;11.73;6.50;;;;;;;;;;5059316;28;20788;-52
2022/04/18 01:59:44;;;;;;;12.05;6.15;;;;;;;;;;5077651;28;20434;-52
2022/04/18 02:02:10;;;;;;;9.10;6.18;;;;;;;;;;5054260;28;20027;-53
2022/04/18 02:04:36;;;;;;;11.65;6.78;;;;;;;;;;5062850;28;20055;-53
2022/04/18 02:07:02;;;;;;;11.00;5.97;;;;;;;;;;5067402;28;20482;-50
2022/04/18 02:09:28;;;;;;;11.15;6.35;;;;;;;;;;5071360;28;20126;-50
2022/04/18 02:11:54;;;;;;;14.65;7.80;;;;;;;;;;5057677;28;20418;-49
2022/04/18 02:14:21;;;;;;;12.13;6.25;;;;;;;;;;5054597;28;20041;-51
2022/04/18 02:16:47;;;;;;;13.65;5.88;;;;;;;;;;5073416;28;20432;-51
2022/04/18 02:19:13;;;;;;;12.07;6.40;;;;;;;;;;5065493;28;20044;-52
2022/04/18 02:21:39;;;;;;;17.77;8.00;;;;;;;;;;5064368;28;20024;-53
2022/04/18 02:24:05;;;;;;;12.38;6.53;;;;;;;;;;5063762;28;20439;-50
2022/04/18 02:26:31;;;;;;;11.20;6.75;;;;;;;;;;5060339;28;20017;-53
2022/04/18 02:28:57;;;;;;;13.40;7.38;;;;;;;;;;5056078;28;20087;-55
2022/04/18 02:31:23;;;;;;;13.52;7.63;;;;;;;;;;5057285;28;20031;-52
2022/04/18 02:33:49;;;;;;;17.90;8.38;;;;;;;;;;5055590;28;20037;-51
2022/04/18 02:36:14;;;;;;;12.38;7.32;;;;;;;;;;5065256;28;20024;-53
2022/04/18 02:38:40;;;;;;;15.23;7.75;;;;;;;;;;5060656;28;20039;-50
2022/04/18 02:41:06;;;;;;;11.23;7.38;;;;;;;;;;5065304;28;20031;-52
2022/04/18 02:43:32;;;;;;;14.45;8.25;;;;;;;;;;5066082;28;20033;-53
2022/04/18 02:45:58;;;;;;;12.70;7.43;;;;;;;;;;5053356;28;20036;-49
2022/04/18 02:48:24;;;;;;;13.48;7.28;;;;;;;;;;5057577;28;20029;-52
2022/04/18 02:50:50;;;;;;;15.82;7.57;;;;;;;;;;5064965;28;20041;-50
2022/04/18 02:53:16;;;;;;;16.20;8.43;;;;;;;;;;5060770;28;20279;-50
2022/04/18 02:55:42;;;;;;;12.88;8.07;;;;;;;;;;5066229;28;20086;-49
2022/04/18 02:58:08;;;;;;;15.93;8.70;;;;;;;;;;5058383;28;20036;-50
2022/04/18 03:00:34;;;;;;;14.80;7.82;;;;;;;;;;5064057;28;20033;-53
2022/04/18 03:03:01;;;;;;;18.83;9.32;;;;;;;;;;5064745;28;20079;-54
2022/04/18 03:05:27;;;;;;;18.52;9.25;;;;;;;;;;5061397;28;20453;-52
2022/04/18 03:07:53;;;;;;;15.43;9.10;;;;;;;;;;5059741;28;20033;-51
2022/04/18 03:11:02;;;;;;;17.55;8.32;;;;;;;;;;5069715;28;20036;-52
2022/04/18 03:13:05;;;;;;;14.98;8.32;;;;;;;;;;5056472;28;20037;-52
2022/04/18 03:15:31;;;;;;;17.23;9.98;;;;;;;;;;5068408;28;20114;-51
2022/04/18 03:17:57;;;;;;;18.00;9.35;;;;;;;;;;5067605;28;20099;-51
2022/04/18 03:20:23;;;;;;;18.38;8.77;;;;;;;;;;5081312;28;20033;-52
2022/04/18 03:22:49;;;;;;;17.25;9.65;;;;;;;;;;5048605;28;20039;-50
2022/04/18 03:25:14;;;;;;;16.85;9.05;;;;;;;;;;5079853;28;20032;-49
2022/04/18 03:27:41;;;;;;;17.42;9.38;;;;;;;;;;5061531;28;20025;-52
2022/04/18 03:30:07;;;;;;;15.35;8.73;;;;;;;;;;5079210;28;20032;-54
2022/04/18 03:32:33;;;;;;;14.98;9.57;;;;;;;;;;5069458;28;20525;-54
2022/04/18 03:34:59;;;;;;;16.35;9.07;;;;;;;;;;5061992;28;20036;-50
2022/04/18 03:40:09;;;;;;;15.80;8.85;;;;;;;;;;5076331;28;20089;-51
2022/04/18 03:42:36;;;;;;;14.13;8.70;;;;;;;;;;5077061;28;20021;-49
2022/04/18 03:45:05;;;;;;;22.08;10.20;;;;;;;;;;5063665;28;20078;-52
2022/04/18 03:47:31;;;;;;;15.05;7.97;;;;;;;;;;5059478;28;20058;-52
2022/04/18 03:49:58;;;;;;;16.60;8.43;;;;;;;;;;5061001;28;20124;-52
2022/04/18 03:52:24;;;;;;;15.93;9.18;;;;;;;;;;5073781;28;20484;-53
2022/04/18 03:54:50;;;;;;;15.20;9.15;;;;;;;;;;5069109;28;20024;-53
2022/04/18 03:57:16;;;;;;;13.95;8.52;;;;;;;;;;5058864;28;20033;-54
2022/04/18 03:59:42;;;;;;;15.23;8.00;;;;;;;;;;5076305;28;20077;-53
2022/04/18 04:02:08;;;;;;;15.38;8.75;;;;;;;;;;5057564;28;20724;-50
2022/04/18 04:04:35;;;;;;;14.40;8.32;;;;;;;;;;5057351;28;20037;-50
2022/04/18 04:07:01;;;;;;;13.60;8.52;;;;;;;;;;5076885;28;20551;-48
2022/04/18 04:09:27;;;;;;;16.75;8.88;;;;;;;;;;5060972;28;20084;-50
2022/04/18 04:11:53;;;;;;;15.80;8.07;;;;;;;;;;5065287;28;20035;-52
2022/04/18 04:14:20;;;;;;;14.43;8.73;;;;;;;;;;5071565;28;20447;-51
2022/04/18 04:16:46;;;;;;;15.35;8.23;;;;;;;;;;5056158;28;20013;-51
2022/04/18 04:19:12;;;;;;;15.40;8.13;;;;;;;;;;5054939;28;20082;-53
2022/04/18 04:21:38;;;;;;;14.00;8.50;;;;;;;;;;5058758;28;20024;-54
2022/04/18 04:24:04;;;;;;;16.08;9.18;;;;;;;;;;5073880;28;20024;-51
2022/04/18 04:26:30;;;;;;;12.40;7.70;;;;;;;;;;5067115;28;20028;-50
2022/04/18 04:28:56;;;;;;;12.38;7.68;;;;;;;;;;5071586;28;20021;-49
2022/04/18 04:31:22;;;;;;;14.75;8.57;;;;;;;;;;5083245;28;20026;-50
2022/04/18 04:33:48;;;;;;;13.90;7.93;;;;;;;;;;5068420;28;20078;-50
2022/04/18 04:36:15;;;;;;;15.23;8.48;;;;;;;;;;5078117;28;20399;-52
2022/04/18 04:38:41;;;;;;;13.77;8.57;;;;;;;;;;5069135;28;20028;-50
2022/04/18 04:41:07;;;;;;;16.40;8.70;;;;;;;;;;5066795;28;20065;-49
2022/04/18 04:43:33;;;;;;;12.75;7.97;;;;;;;;;;5066740;28;20032;-49
2022/04/18 04:46:02;;;;;;;15.23;8.35;;;;;;;;;;5069614;28;20027;-48
2022/04/18 04:48:29;;;;;;;16.27;8.45;;;;;;;;;;5058032;28;20025;-48
2022/04/18 04:50:55;;;;;;;17.13;8.65;;;;;;;;;;5067895;28;20121;-50
2022/04/18 04:53:21;;;;;;;15.07;8.60;;;;;;;;;;5047744;28;20025;-51
2022/04/18 04:55:47;;;;;;;15.63;8.57;;;;;;;;;;5067257;28;20458;-53
2022/04/18 04:58:13;;;;;;;16.00;8.77;;;;;;;;;;5060731;28;20036;-51
2022/04/18 05:00:39;;;;;;;11.70;7.90;;;;;;;;;;5066611;28;20085;-53
2022/04/18 05:03:05;;;;;;;14.35;8.18;;;;;;;;;;5066351;28;20108;-54
2022/04/18 05:05:35;;;;;;;15.63;8.63;;;;;;;;;;5075028;28;20032;-52
2022/04/18 05:08:01;;;;;;;14.65;7.88;;;;;;;;;;5070229;28;20017;-51
2022/04/18 05:10:27;;;;;;;13.63;8.18;;;;;;;;;;5056947;28;20037;-52
2022/04/18 05:12:53;;;;;;;18.40;8.52;;;;;;;;;;5060676;28;20036;-53
2022/04/18 05:15:19;;;;;;;13.93;7.57;;;;;;;;;;5086117;28;20882;-51
2022/04/18 05:17:45;;;;;;;12.93;7.50;;;;;;;;;;5058396;28;20083;-50
2022/04/18 05:20:11;;;;;;;13.02;7.68;;;;;;;;;;5065267;28;20037;-52
2022/04/18 05:22:37;;;;;;;15.40;8.40;;;;;;;;;;5061343;28;20033;-52
2022/04/18 05:25:04;;;;;;;11.85;7.35;;;;;;;;;;5068166;28;20547;-52
2022/04/18 05:27:30;;;;;;;11.98;7.47;;;;;;;;;;5078191;28;20133;-50
2022/04/18 05:29:56;;;;;;;14.73;7.95;;;;;;;;;;5062859;28;20017;-51
2022/04/18 05:32:22;;;;;;;16.15;8.63;;;;;;;;;;5071016;28;20033;-52
2022/04/18 05:34:48;;;;;;;17.80;8.60;;;;;;;;;;5074686;28;20464;-50
2022/04/18 05:37:14;;;;;;;14.32;8.00;;;;;;;;;;5076677;28;20036;-52
2022/04/18 05:39:40;;;;;;;16.38;8.38;;;;;;;;;;5069977;28;20146;-54
2022/04/18 05:42:07;;;;;;;14.73;8.63;;;;;;;;;;5065972;28;20032;-54
2022/04/18 05:44:33;;;;;;;13.38;7.50;;;;;;;;;;5064049;28;20029;-54
2022/04/18 05:47:00;;;;;;;14.10;7.15;;;;;;;;;;5067168;28;20086;-49
2022/04/18 05:49:26;;;;;;;16.25;9.07;;;;;;;;;;5072624;28;20028;-50
2022/04/18 05:51:52;;;;;;;12.60;7.78;;;;;;;;;;5067089;28;20035;-50
2022/04/18 05:54:18;;;;;;;15.60;8.80;;;;;;;;;;5063039;28;20029;-53
2022/04/18 05:56:44;;;;;;;15.45;7.50;;;;;;;;;;5067435;28;20036;-53
2022/04/18 05:59:10;;;;;;;16.60;8.23;;;;;;;;;;5061055;28;20047;-51
2022/04/18 06:01:36;;;;;;;15.25;7.78;;;;;;;;;;5058086;28;20419;-53
2022/04/18 06:04:02;;;;;;;15.52;7.35;;;;;;;;;;5059731;28;20034;-54
2022/04/18 06:06:28;;;;;;;16.35;7.55;;;;;;;;;;5073172;28;20060;-53
2022/04/18 06:08:54;;;;;;;14.40;7.82;;;;;;;;;;5073182;28;20577;-53
2022/04/18 06:11:20;;;;;;;15.13;8.25;;;;;;;;;;5071597;28;20032;-53
2022/04/18 06:13:46;;;;;;;15.85;7.78;;;;;;;;;;5061725;28;20029;-50
2022/04/18 06:16:12;;;;;;;16.95;8.50;;;;;;;;;;5065489;28;20032;-53
2022/04/18 06:18:38;;;;;;;17.38;8.77;;;;;;;;;;5059225;28;20154;-51
2022/04/18 06:21:06;;;;;;;17.25;8.30;;;;;;;;;;5059194;28;20492;-51
2022/04/18 06:23:32;;;;;;;19.10;8.80;;;;;;;;;;5067948;28;20095;-53
2022/04/18 06:25:58;;;;;;;18.42;8.95;;;;;;;;;;5069170;28;20031;-53
2022/04/18 06:28:24;;;;;;;16.92;8.40;;;;;;;;;;5061094;28;20020;-52
2022/04/18 06:30:50;;;;;;;13.88;8.15;;;;;;;;;;5049586;28;20029;-53
2022/04/18 06:33:16;;;;;;;19.60;9.02;;;;;;;;;;5059323;28;20046;-52
2022/04/18 06:35:45;;;;;;;20.73;9.18;;;;;;;;;;5055250;28;20047;-49
2022/04/18 06:38:11;;;;;;;19.45;8.02;;;;;;;;;;5070299;28;20023;-53
2022/04/18 06:40:37;;;;;;;24.88;8.95;;;;;;;;;;5075114;28;20444;-54
2022/04/18 06:43:03;;;;;;;15.50;7.88;;;;;;;;;;5055300;28;20055;-55
2022/04/18 06:45:31;;;;;;;20.02;8.02;;;;;;;;;;5063708;28;20025;-54
2022/04/18 06:47:57;;;;;;;18.23;8.52;;;;;;;;;;5059307;28;20149;-53
2022/04/18 06:50:23;;;;;;;21.38;9.07;;;;;;;;;;5065916;28;20080;-55
2022/04/18 06:52:50;;;;;;;20.77;8.00;;;;;;;;;;5061006;28;20017;-51
2022/04/18 06:55:17;;;;;;;20.08;9.40;;;;;;;;;;5055262;28;20564;-53
2022/04/18 06:57:43;;;;;;;17.27;7.93;;;;;;;;;;5073412;28;20099;-50
2022/04/18 07:00:09;;;;;;;18.85;8.23;;;;;;;;;;5055122;28;20017;-53
2022/04/18 07:02:35;;;;;;;16.83;8.25;;;;;;;;;;5074343;28;20509;-52
2022/04/18 07:05:01;;;;;;;14.73;7.28;;;;;;;;;;5055906;28;20136;-53
2022/04/18 07:07:27;;;;;;;20.13;7.40;;;;;;;;;;5073697;28;20115;-54
2022/04/18 07:09:53;;;;;;;12.90;7.05;;;;;;;;;;5054575;28;20024;-52
2022/04/18 07:12:23;;;;;;;11.88;6.30;;;;;;;;;;5076221;28;20072;-52
2022/04/18 07:14:49;;;;;;;12.32;6.68;;;;;;;;;;5071103;28;20029;-53
2022/04/18 07:17:15;;;;;;;13.75;6.05;;;;;;;;;;5068087;28;20033;-51
2022/04/18 07:19:41;;;;;;;11.20;5.57;;;;;;;;;;5061216;28;20031;-53
2022/04/18 07:22:07;;;;;;;17.77;6.78;;;;;;;;;;5055137;28;20029;-52
2022/04/18 07:24:33;;;;;;;13.60;6.53;;;;;;;;;;5050611;28;20028;-51
2022/04/18 07:27:01;;;;;;;12.43;6.10;;;;;;;;;;5055263;28;20395;-53
2022/04/18 07:29:28;;;;;;;11.55;5.55;;;;;;;;;;5078300;28;20035;-53
2022/04/18 07:31:54;;;;;;;11.27;5.30;;;;;;;;;;5051370;28;20495;-55
2022/04/18 07:34:20;;;;;;;11.30;5.93;;;;;;;;;;5063409;28;20543;-52
2022/04/18 07:36:46;;;;;;;14.13;5.13;;;;;;;;;;5049751;28;20055;-54
2022/04/18 07:39:12;;;;;;;9.93;4.82;;;;;;;;;;5072987;28;20049;-55
2022/04/18 07:41:38;;;;;;;10.82;4.90;;;;;;;;;;5072527;28;20035;-54
2022/04/18 07:44:05;;;;;;;10.32;5.32;;;;;;;;;;5064684;28;20021;-54
2022/04/18 07:46:31;;;;;;;8.27;4.43;;;;;;;;;;5076484;28;20025;-52
2022/04/18 07:48:57;;;;;;;10.88;5.03;;;;;;;;;;5061140;28;20048;-55
2022/04/18 07:51:35;;;;;;;12.30;4.90;;;;;;;;;;5070945;28;20062;-53
2022/04/18 07:54:05;;;;;;;11.32;4.75;;;;;;;;;;5070549;28;20045;-54
2022/04/18 07:56:32;;;;;;;11.07;5.38;;;;;;;;;;5056136;28;20060;-53
2022/04/18 07:58:58;;;;;;;7.20;3.97;;;;;;;;;;5062279;28;20488;-55
2022/04/18 08:01:24;;;;;;;8.68;4.55;;;;;;;;;;5072141;28;20039;-53
2022/04/18 08:03:50;;;;;;;13.77;4.85;;;;;;;;;;5062055;28;20067;-54
2022/04/18 08:06:17;;;;;;;9.40;4.30;;;;;;;;;;5074248;28;20035;-53
2022/04/18 08:08:43;;;;;;;12.93;5.38;;;;;;;;;;5077083;28;20032;-55
2022/04/18 08:11:11;;;;;;;8.95;4.88;;;;;;;;;;5093271;28;20028;-54
2022/04/18 08:13:38;;;;;;;13.07;4.93;;;;;;;;;;5065596;28;20033;-52
2022/04/18 08:16:04;;;;;;;8.88;4.30;;;;;;;;;;5076141;28;20387;-53
2022/04/18 08:18:30;;;;;;;12.02;5.35;;;;;;;;;;5056378;28;20037;-55
2022/04/18 08:20:56;;;;;;;10.30;5.25;;;;;;;;;;5069157;28;20028;-55
2022/04/18 08:23:23;;;;;;;9.60;4.53;;;;;;;;;;5085918;28;20036;-53
2022/04/18 08:25:49;;;;;;;9.45;5.05;;;;;;;;;;5064537;28;20032;-55
2022/04/18 08:28:15;;;;;;;9.35;4.47;;;;;;;;;;5053559;28;20024;-55
2022/04/18 08:30:41;;;;;;;10.07;5.22;;;;;;;;;;5056624;28;20086;-55
2022/04/18 08:33:06;;;;;;;9.07;4.50;;;;;;;;;;5063267;28;20040;-55
2022/04/18 08:35:33;;;;;;;8.88;4.20;;;;;;;;;;5062783;28;20551;-54
2022/04/18 08:38:01;;;;;;;7.30;3.75;;;;;;;;;;5068816;28;20380;-55
2022/04/18 08:40:28;;;;;;;7.45;3.65;;;;;;;;;;5069197;28;20064;-52
2022/04/18 08:42:57;;;;;;;8.80;3.25;;;;;;;;;;5072642;28;20115;-54
2022/04/18 08:45:24;;;;;;;9.77;3.47;;;;;;;;;;5075110;28;20053;-55
2022/04/18 08:53:24;;;;;;;4.18;2.33;;;;;;;;;;5069820;28;20101;-55
2022/04/18 08:55:50;;;;;;;4.03;2.15;;;;;;;;;;5092770;28;20123;-54
2022/04/18 08:58:16;;;;;;;6.18;2.90;;;;;;;;;;5084139;28;20020;-55
2022/04/18 09:00:42;;;;;;;3.72;2.30;;;;;;;;;;5060519;28;20102;-55
2022/04/18 09:03:08;;;;;;;5.80;2.42;;;;;;;;;;5069967;28;20093;-54
2022/04/18 09:05:35;;;;;;;7.45;2.50;;;;;;;;;;5078984;28;20436;-53
2022/04/18 09:08:03;;;;;;;5.07;2.25;;;;;;;;;;5067717;28;20029;-55
2022/04/18 09:10:29;;;;;;;6.55;2.70;;;;;;;;;;5073563;28;20043;-54
2022/04/18 09:13:02;;;;;;;6.28;2.53;;;;;;;;;;5068388;28;20029;-55
2022/04/18 09:15:41;;;;;;;5.05;2.20;;;;;;;;;;5064488;28;20568;-55
2022/04/18 09:18:08;;;;;;;4.25;2.03;;;;;;;;;;5069183;28;20060;-57
2022/04/18 09:21:01;;;;;;;4.75;2.33;;;;;;;;;;5068242;28;20112;-56
2022/04/18 09:23:31;;;;;;;4.53;2.17;;;;;;;;;;5066414;28;20428;-55
2022/04/18 09:26:00;;;;;;;6.47;2.40;;;;;;;;;;5063808;28;20504;-54
2022/04/18 09:28:27;;;;;;;4.97;2.20;;;;;;;;;;5069540;28;20024;-57
2022/04/18 09:30:57;;;;;;;4.60;1.95;;;;;;;;;;5076192;28;20440;-54
2022/04/18 09:33:23;;;;;;;4.97;1.63;;;;;;;;;;5067678;28;20037;-56
2022/04/18 09:35:50;;;;;;;4.30;2.03;;;;;;;;;;5071790;28;20040;-54
2022/04/18 09:38:21;;;;;;;4.28;2.42;;;;;;;;;;5064656;28;20451;-56
2022/04/18 09:40:47;;;;;;;4.30;1.90;;;;;;;;;;5080317;28;20604;-54
2022/04/18 09:43:13;;;;;;;5.03;1.90;;;;;;;;;;5076391;28;20016;-55
2022/04/18 09:45:39;;;;;;;3.17;1.20;;;;;;;;;;5079868;28;20017;-55
2022/04/18 09:48:05;;;;;;;3.90;1.27;;;;;;;;;;5074467;28;20380;-56
2022/04/18 09:51:16;;;;;;;2.45;1.45;;;;;;;;;;5065291;28;20053;-55
2022/04/18 09:53:20;;;;;;;3.67;1.98;;;;;;;;;;5049227;28;20058;-56
2022/04/18 09:55:50;;;;;;;3.00;1.90;;;;;;;;;;5067249;28;20519;-56
2022/04/18 09:58:16;;;;;;;6.22;1.95;;;;;;;;;;5082812;28;20025;-55
2022/04/18 10:00:42;;;;;;;4.15;1.80;;;;;;;;;;5080134;28;20020;-55
2022/04/18 10:03:09;;;;;;;2.45;1.58;;;;;;;;;;5061700;28;20032;-55
2022/04/18 10:05:35;;;;;;;4.55;1.70;;;;;;;;;;5066606;28;20029;-55
2022/04/18 10:08:04;;;;;;;4.10;2.13;;;;;;;;;;5065921;28;20029;-53
2022/04/18 10:10:34;;;;;;;6.65;1.83;;;;;;;;;;5053218;28;20118;-55
2022/04/18 10:13:00;;;;;;;6.20;1.30;;;;;;;;;;5073677;28;20028;-53
2022/04/18 10:15:27;;;;;;;4.22;1.33;;;;;;;;;;5071903;28;20034;-53
2022/04/18 10:17:53;;;;;;;3.65;1.55;;;;;;;;;;5082650;28;20032;-56
2022/04/18 10:20:38;;;;;;;2.70;1.42;;;;;;;;;;5080648;28;20356;-56
2022/04/18 10:23:22;;;;;;;3.65;1.60;;;;;;;;;;5067386;28;20037;-56
2022/04/18 10:26:07;;;;;;;2.70;1.30;;;;;;;;;;5051268;28;20028;-55
2022/04/18 10:28:35;;;;;;;2.45;1.10;;;;;;;;;;5062001;28;20028;-55
2022/04/18 10:31:02;;;;;;;2.03;1.02;;;;;;;;;;5060937;28;20558;-56
2022/04/18 10:33:29;;;;;;;3.33;1.17;;;;;;;;;;5060352;28;20042;-56
2022/04/18 10:36:00;;;;;;;2.30;1.48;;;;;;;;;;5056609;28;20024;-55
2022/04/18 10:38:27;;;;;;;2.25;1.05;;;;;;;;;;5064821;28;20164;-55
2022/04/18 10:43:58;;;;;;;3.28;1.10;;;;;;;;;;5053397;28;20064;-54
2022/04/18 10:46:25;;;;;;;1.98;0.95;;;;;;;;;;5056245;28;20119;-55
2022/04/18 10:48:55;;;;;;;2.58;1.20;;;;;;;;;;5057825;28;20031;-56
2022/04/18 10:51:28;;;;;;;2.40;1.27;;;;;;;;;;5073719;28;20497;-56
2022/04/18 10:54:07;;;;;;;3.10;0.90;;;;;;;;;;5068284;28;20012;-55
2022/04/18 10:57:01;;;;;;;3.88;1.30;;;;;;;;;;5070503;28;20487;-55
2022/04/18 10:59:26;;;;;;;3.38;1.10;;;;;;;;;;5072406;28;20066;-56
2022/04/18 11:01:57;;;;;;;3.08;1.10;;;;;;;;;;5066157;28;20306;-54
2022/04/18 11:04:27;;;;;;;1.90;0.80;;;;;;;;;;5062912;28;20020;-56
2022/04/18 11:07:00;;;;;;;3.38;1.10;;;;;;;;;;5062015;28;20056;-55
2022/04/18 11:09:27;;;;;;;1.90;1.13;;;;;;;;;;5070792;28;20021;-56
2022/04/18 11:12:12;;;;;;;2.38;1.10;;;;;;;;;;5065910;28;20041;-56
2022/04/18 11:14:40;;;;;;;2.85;1.17;;;;;;;;;;5067318;28;20043;-56
2022/04/18 11:17:06;;;;;;;1.52;0.85;;;;;;;;;;5060470;28;20058;-55
2022/04/18 11:19:36;;;;;;;2.53;1.02;;;;;;;;;;5066162;28;21161;-56
2022/04/18 11:22:04;;;;;;;4.57;1.17;;;;;;;;;;5059184;28;20028;-57
2022/04/18 11:24:38;;;;;;;1.83;0.82;;;;;;;;;;5066068;28;20529;-56
2022/04/18 11:27:06;;;;;;;4.18;1.13;;;;;;;;;;5071182;28;20383;-56
2022/04/18 11:29:32;;;;;;;2.25;0.80;;;;;;;;;;5069213;28;20031;-56
2022/04/18 11:31:59;;;;;;;2.38;0.98;;;;;;;;;;5058831;28;20020;-57
2022/04/18 11:34:26;;;;;;;1.90;0.90;;;;;;;;;;5070826;28;20025;-54
2022/04/18 11:37:00;;;;;;;1.80;0.77;;;;;;;;;;5063332;28;20029;-54
2022/04/18 11:39:41;;;;;;;1.05;0.55;;;;;;;;;;5070140;28;20630;-57
2022/04/18 11:42:07;;;;;;;0.93;0.50;;;;;;;;;;5068536;28;20036;-56
2022/04/18 11:44:40;;;;;;;2.05;0.90;;;;;;;;;;5047558;28;20484;-57
2022/04/18 11:47:08;;;;;;;2.25;0.95;;;;;;;;;;5070432;28;20032;-56
2022/04/18 11:49:34;;;;;;;1.95;0.90;;;;;;;;;;5059131;28;20131;-55
2022/04/18 11:51:59;;;;;;;2.47;0.85;;;;;;;;;;5072540;28;20460;-56
2022/04/18 11:54:26;;;;;;;2.65;0.52;;;;;;;;;;5066276;28;20040;-57
2022/04/18 11:56:59;;;;;;;3.55;0.93;;;;;;;;;;5070249;28;20035;-56
2022/04/18 11:59:29;;;;;;;2.08;0.90;;;;;;;;;;5061978;28;20020;-57
2022/04/18 12:07:26;;;;;;;0.88;0.40;;;;;;;;;;5074741;28;20051;-57
2022/04/18 12:09:52;;;;;;;1.60;0.60;;;;;;;;;;5078903;28;20479;-55
2022/04/18 12:12:31;;;;;;;1.30;0.60;;;;;;;;;;5085210;28;20036;-56
2022/04/18 12:15:01;;;;;;;1.23;0.60;;;;;;;;;;5072283;28;20386;-56
2022/04/18 12:17:27;;;;;;;1.13;0.52;;;;;;;;;;5070869;28;20041;-57
2022/04/18 12:19:53;;;;;;;1.83;0.77;;;;;;;;;;5066358;28;20021;-54
2022/04/18 12:22:21;;;;;;;1.60;0.52;;;;;;;;;;5070014;28;20025;-54
2022/04/18 12:24:47;;;;;;;1.38;0.45;;;;;;;;;;5074037;28;20036;-54
2022/04/18 12:27:14;;;;;;;1.08;0.60;;;;;;;;;;5078461;28;20024;-54
2022/04/18 12:29:40;;;;;;;1.83;0.70;;;;;;;;;;5058489;28;20072;-53
2022/04/18 12:32:06;;;;;;;1.73;0.32;;;;;;;;;;5060637;28;20091;-53
2022/04/18 12:34:32;;;;;;;1.60;0.50;;;;;;;;;;5062375;28;20027;-54
2022/04/18 12:36:59;;;;;;;0.65;0.30;;;;;;;;;;5069030;28;20024;-53
2022/04/18 12:39:26;;;;;;;1.13;0.43;;;;;;;;;;5062612;28;20036;-51
2022/04/18 12:42:06;;;;;;;1.13;0.30;;;;;;;;;;5057417;28;20020;-55
2022/04/18 12:44:32;;;;;;;3.72;0.55;;;;;;;;;;5063099;28;20024;-53
2022/04/18 12:46:58;;;;;;;0.77;0.40;;;;;;;;;;5068479;28;20020;-55
2022/04/18 12:49:24;;;;;;;1.85;0.40;;;;;;;;;;5059681;28;20444;-54
2022/04/18 12:51:51;;;;;;;0.65;0.30;;;;;;;;;;5058405;28;20383;-54
2022/04/18 12:54:24;;;;;;;0.63;0.28;;;;;;;;;;5068052;28;20120;-53
2022/04/18 12:56:51;;;;;;;1.45;0.47;;;;;;;;;;5066071;28;20021;-54
2022/04/18 12:59:24;;;;;;;1.05;0.35;;;;;;;;;;5080660;28;20039;-54
2022/04/18 13:01:50;;;;;;;0.32;0.30;;;;;;;;;;5073264;28;20033;-54
2022/04/18 13:04:24;;;;;;;1.60;0.65;;;;;;;;;;5065682;28;20495;-54
2022/04/18 13:06:57;;;;;;;0.95;0.52;;;;;;;;;;5081772;28;20077;-54
2022/04/18 13:09:23;;;;;;;1.33;0.50;;;;;;;;;;5073484;28;20033;-54
2022/04/18 13:11:49;;;;;;;0.70;0.30;;;;;;;;;;5073172;28;20017;-54
2022/04/18 13:14:15;;;;;;;1.15;0.30;;;;;;;;;;5057805;28;20021;-54
2022/04/18 13:16:43;;;;;;;1.52;0.40;;;;;;;;;;5066154;28;20148;-52
2022/04/18 13:19:13;;;;;;;0.52;0.22;;;;;;;;;;5052338;28;20067;-54
2022/04/18 13:21:39;;;;;;;2.15;0.50;;;;;;;;;;5068010;28;20552;-53
2022/04/18 13:24:05;;;;;;;0.60;0.50;;;;;;;;;;5083318;28;20020;-55
2022/04/18 13:26:32;;;;;;;1.10;0.30;;;;;;;;;;5071366;28;20028;-54
2022/04/18 13:28:59;;;;;;;1.42;0.20;;;;;;;;;;5072279;28;20059;-54
2022/04/18 13:31:26;;;;;;;0.40;0.22;;;;;;;;;;5067310;28;20033;-55
2022/04/18 13:33:52;;;;;;;0.57;0.28;;;;;;;;;;5061569;28;20435;-56
2022/04/18 13:36:30;;;;;;;1.15;0.30;;;;;;;;;;5058205;28;20021;-55
2022/04/18 13:38:57;;;;;;;0.52;0.15;;;;;;;;;;5070151;28;20099;-54
2022/04/18 13:41:23;;;;;;;0.43;0.30;;;;;;;;;;5085760;28;20608;-54
2022/04/18 13:43:49;;;;;;;0.35;0.25;;;;;;;;;;5090159;28;20102;-53
2022/04/18 13:46:16;;;;;;;0.85;0.30;;;;;;;;;;5073090;28;20077;-53
2022/04/18 13:48:47;;;;;;;0.73;0.20;;;;;;;;;;5055470;28;20025;-53
2022/04/18 13:51:13;;;;;;;1.80;0.40;;;;;;;;;;5056046;28;20435;-54
2022/04/18 13:53:39;;;;;;;0.43;0.20;;;;;;;;;;5052052;28;20051;-51
2022/04/18 13:56:05;;;;;;;1.85;0.35;;;;;;;;;;5068758;28;20040;-54
2022/04/18 13:58:31;;;;;;;0.90;0.30;;;;;;;;;;5070170;28;20020;-55
2022/04/18 14:00:57;;;;;;;0.75;0.20;;;;;;;;;;5056986;28;20512;-54
2022/04/18 14:03:25;;;;;;;0.40;0.30;;;;;;;;;;5063018;28;20104;-54
2022/04/18 14:05:51;;;;;;;0.30;0.20;;;;;;;;;;5046665;28;20024;-54
2022/04/18 14:08:17;;;;;;;1.48;0.28;;;;;;;;;;5069290;28;20110;-55
2022/04/18 14:10:43;;;;;;;0.95;0.30;;;;;;;;;;5052759;28;20025;-54
2022/04/18 14:13:09;;;;;;;1.13;0.32;;;;;;;;;;5066459;28;20024;-55
2022/04/18 14:21:05;;;;;;;0.60;0.30;;;;;;;;;;5055832;28;20044;-55
2022/04/18 14:23:31;;;;;;;1.60;0.32;;;;;;;;;;5059335;28;20115;-55
2022/04/18 14:25:57;;;;;;;2.92;1.45;;;;;;;;;;5054848;28;20855;-55
2022/04/18 14:28:23;;;;;;;0.50;0.20;;;;;;;;;;5062525;28;20032;-54
2022/04/18 14:30:49;;;;;;;1.08;0.30;;;;;;;;;;5063170;28;20035;-53
2022/04/18 14:33:18;;;;;;;0.55;0.30;;;;;;;;;;5067348;28;20028;-53
2022/04/18 14:35:44;;;;;;;0.98;0.30;;;;;;;;;;5070102;28;20039;-54
2022/04/18 14:38:10;;;;;;;0.75;0.20;;;;;;;;;;5074241;28;20025;-55
2022/04/18 14:40:39;;;;;;;0.40;0.30;;;;;;;;;;5063913;28;20040;-54
2022/04/18 14:43:05;;;;;;;1.00;0.30;;;;;;;;;;5062454;28;20028;-54
2022/04/18 14:45:31;;;;;;;1.33;0.60;;;;;;;;;;5070609;28;20055;-53
2022/04/18 14:47:57;;;;;;;0.65;0.38;;;;;;;;;;5057073;28;20021;-54
2022/04/18 14:50:23;;;;;;;0.80;0.30;;;;;;;;;;5057476;28;20075;-54
2022/04/18 14:52:49;;;;;;;2.88;0.40;;;;;;;;;;5059512;28;20098;-53
2022/04/18 14:55:15;;;;;;;0.50;0.25;;;;;;;;;;5060333;28;20547;-54
2022/04/18 14:57:41;;;;;;;2.17;0.55;;;;;;;;;;5066887;28;20029;-55
2022/04/18 15:00:08;;;;;;;0.75;0.25;;;;;;;;;;5059547;28;20094;-54
2022/04/18 15:02:33;;;;;;;2.20;0.43;;;;;;;;;;5078790;28;21834;-54
2022/04/18 15:05:01;;;;;;;0.38;0.28;;;;;;;;;;5068270;28;20063;-53